sensor_id;sensor_type;location;lat;lon;timestamp;pressure;altitude;pressure_sealevel;temperature;humidity
64053;BME280;50299;49.524;8.536;2023-07-31T00:02:05;100423.97;;;16.50;44.23
64053;BME280;50299;49.524;8.536;2023-07-31T00:04:31;100430.13;;;16.40;46.53
64053;BME280;50299;49.524;8.536;2023-07-31T00:06:57;100427.03;;;16.45;46.73
64053;BME280;50299;49.524;8.536;2023-07-31T00:09:24;100415.94;;;16.48;46.56
64053;BME280;50299;49.524;8.536;2023-07-31T00:11:50;100423.13;;;16.26;45.58
64053;BME280;50299;49.524;8.536;2023-07-31T00:14:19;100421.06;;;16.04;47.74
64053;BME280;50299;49.524;8.536;2023-07-31T00:16:45;100413.22;;;16.10;47.30
64053;BME280;50299;49.524;8.536;2023-07-31T00:19:11;100418.66;;;16.02;46.32
64053;BME280;50299;49.524;8.536;2023-07-31T00:21:38;100419.84;;;16.01;45.63
64053;BME280;50299;49.524;8.536;2023-07-31T00:24:04;100415.56;;;16.08;47.92
64053;BME280;50299;49.524;8.536;2023-07-31T00:26:31;100413.28;;;15.94;46.20
64053;BME280;50299;49.524;8.536;2023-07-31T00:28:57;100412.91;;;15.95;46.24
64053;BME280;50299;49.524;8.536;2023-07-31T00:31:24;100417.34;;;15.96;47.35
64053;BME280;50299;49.524;8.536;2023-07-31T00:33:50;100411.25;;;15.91;47.52
64053;BME280;50299;49.524;8.536;2023-07-31T00:36:17;100410.38;;;16.06;49.82
64053;BME280;50299;49.524;8.536;2023-07-31T00:38:44;100412.56;;;15.97;46.96
64053;BME280;50299;49.524;8.536;2023-07-31T00:41:11;100413.56;;;15.89;48.56
64053;BME280;50299;49.524;8.536;2023-07-31T00:43:37;100411.09;;;15.84;47.18
64053;BME280;50299;49.524;8.536;2023-07-31T00:46:04;100411.84;;;15.65;49.53
64053;BME280;50299;49.524;8.536;2023-07-31T00:48:31;100411.78;;;15.61;48.45
64053;BME280;50299;49.524;8.536;2023-07-31T00:50:58;100408.41;;;15.52;48.62
64053;BME280;50299;49.524;8.536;2023-07-31T00:53:25;100405.31;;;15.57;47.38
64053;BME280;50299;49.524;8.536;2023-07-31T00:55:51;100399.56;;;15.50;49.35
64053;BME280;50299;49.524;8.536;2023-07-31T00:58:18;100404.19;;;15.42;48.40
64053;BME280;50299;49.524;8.536;2023-07-31T01:00:45;100401.47;;;15.46;47.50
64053;BME280;50299;49.524;8.536;2023-07-31T01:03:11;100398.19;;;15.40;48.20
64053;BME280;50299;49.524;8.536;2023-07-31T01:05:49;100394.00;;;15.31;50.55
64053;BME280;50299;49.524;8.536;2023-07-31T01:08:32;100395.03;;;15.42;49.95
64053;BME280;50299;49.524;8.536;2023-07-31T01:11:27;100396.28;;;15.44;51.48
64053;BME280;50299;49.524;8.536;2023-07-31T01:13:55;100394.75;;;15.47;51.33
64053;BME280;50299;49.524;8.536;2023-07-31T01:16:21;100397.59;;;15.31;51.64
64053;BME280;50299;49.524;8.536;2023-07-31T01:18:48;100387.72;;;15.18;52.04
64053;BME280;50299;49.524;8.536;2023-07-31T01:21:31;100385.75;;;15.02;52.89
64053;BME280;50299;49.524;8.536;2023-07-31T01:26:36;100380.31;;;15.25;53.63
64053;BME280;50299;49.524;8.536;2023-07-31T01:29:20;100383.19;;;15.29;54.41
64053;BME280;50299;49.524;8.536;2023-07-31T01:31:49;100381.88;;;15.23;52.29
64053;BME280;50299;49.524;8.536;2023-07-31T01:34:17;100389.75;;;15.05;52.85
64053;BME280;50299;49.524;8.536;2023-07-31T01:36:44;100385.47;;;15.08;53.56
64053;BME280;50299;49.524;8.536;2023-07-31T01:39:10;100382.16;;;15.02;55.38
64053;BME280;50299;49.524;8.536;2023-07-31T01:41:37;100377.91;;;15.08;53.78
64053;BME280;50299;49.524;8.536;2023-07-31T01:44:03;100383.38;;;15.04;54.45
64053;BME280;50299;49.524;8.536;2023-07-31T01:46:30;100377.41;;;15.02;54.31
64053;BME280;50299;49.524;8.536;2023-07-31T01:48:56;100373.06;;;15.05;53.78
64053;BME280;50299;49.524;8.536;2023-07-31T01:51:23;100372.44;;;15.12;53.83
64053;BME280;50299;49.524;8.536;2023-07-31T01:53:49;100377.94;;;14.76;53.86
64053;BME280;50299;49.524;8.536;2023-07-31T01:56:16;100374.81;;;14.94;54.73
64053;BME280;50299;49.524;8.536;2023-07-31T01:58:42;100370.13;;;14.98;53.07
64053;BME280;50299;49.524;8.536;2023-07-31T02:01:08;100370.56;;;15.00;53.85
64053;BME280;50299;49.524;8.536;2023-07-31T02:03:35;100361.31;;;14.96;53.59
64053;BME280;50299;49.524;8.536;2023-07-31T02:06:01;100361.84;;;15.17;54.09
64053;BME280;50299;49.524;8.536;2023-07-31T02:08:28;100361.94;;;15.21;53.73
64053;BME280;50299;49.524;8.536;2023-07-31T02:10:54;100350.16;;;15.27;53.31
64053;BME280;50299;49.524;8.536;2023-07-31T02:13:20;100347.56;;;15.19;54.21
64053;BME280;50299;49.524;8.536;2023-07-31T02:15:47;100341.22;;;15.38;54.51
64053;BME280;50299;49.524;8.536;2023-07-31T02:18:14;100349.97;;;15.20;52.14
64053;BME280;50299;49.524;8.536;2023-07-31T02:20:40;100340.09;;;15.23;51.77
64053;BME280;50299;49.524;8.536;2023-07-31T02:23:07;100344.41;;;15.20;51.59
64053;BME280;50299;49.524;8.536;2023-07-31T02:25:33;100338.50;;;15.06;50.49
64053;BME280;50299;49.524;8.536;2023-07-31T02:27:59;100340.75;;;15.00;52.71
64053;BME280;50299;49.524;8.536;2023-07-31T02:30:26;100340.31;;;15.14;51.35
64053;BME280;50299;49.524;8.536;2023-07-31T02:32:53;100344.72;;;15.15;51.14
64053;BME280;50299;49.524;8.536;2023-07-31T02:35:19;100342.34;;;15.17;50.30
64053;BME280;50299;49.524;8.536;2023-07-31T02:37:46;100340.03;;;15.03;52.00
64053;BME280;50299;49.524;8.536;2023-07-31T02:40:12;100336.75;;;14.82;50.86
64053;BME280;50299;49.524;8.536;2023-07-31T02:42:39;100336.47;;;14.87;51.55
64053;BME280;50299;49.524;8.536;2023-07-31T02:45:06;100338.25;;;14.79;51.45
64053;BME280;50299;49.524;8.536;2023-07-31T02:47:32;100329.84;;;14.60;51.82
64053;BME280;50299;49.524;8.536;2023-07-31T02:50:01;100330.56;;;14.57;51.82
64053;BME280;50299;49.524;8.536;2023-07-31T02:52:27;100337.28;;;14.56;52.63
64053;BME280;50299;49.524;8.536;2023-07-31T02:54:54;100335.41;;;14.44;52.64
64053;BME280;50299;49.524;8.536;2023-07-31T02:57:20;100327.97;;;14.48;53.31
64053;BME280;50299;49.524;8.536;2023-07-31T02:59:47;100324.13;;;14.53;53.85
64053;BME280;50299;49.524;8.536;2023-07-31T03:02:13;100332.88;;;14.55;52.87
64053;BME280;50299;49.524;8.536;2023-07-31T03:04:40;100330.19;;;14.43;54.35
64053;BME280;50299;49.524;8.536;2023-07-31T03:07:07;100327.69;;;14.53;52.48
64053;BME280;50299;49.524;8.536;2023-07-31T03:09:33;100339.06;;;14.80;52.26
64053;BME280;50299;49.524;8.536;2023-07-31T03:11:59;100329.47;;;14.77;53.65
64053;BME280;50299;49.524;8.536;2023-07-31T03:16:55;100334.66;;;14.95;51.66
64053;BME280;50299;49.524;8.536;2023-07-31T03:19:22;100339.31;;;15.07;51.62
64053;BME280;50299;49.524;8.536;2023-07-31T03:21:48;100340.13;;;14.91;51.52
64053;BME280;50299;49.524;8.536;2023-07-31T03:24:14;100331.53;;;14.80;52.13
64053;BME280;50299;49.524;8.536;2023-07-31T03:26:41;100330.00;;;14.83;52.79
64053;BME280;50299;49.524;8.536;2023-07-31T03:29:08;100327.81;;;14.92;52.58
64053;BME280;50299;49.524;8.536;2023-07-31T03:31:34;100329.56;;;14.81;53.40
64053;BME280;50299;49.524;8.536;2023-07-31T03:34:01;100331.78;;;14.91;52.37
64053;BME280;50299;49.524;8.536;2023-07-31T03:36:27;100315.47;;;14.90;51.64
64053;BME280;50299;49.524;8.536;2023-07-31T03:38:54;100323.25;;;14.84;51.99
64053;BME280;50299;49.524;8.536;2023-07-31T03:41:20;100320.34;;;14.77;52.94
64053;BME280;50299;49.524;8.536;2023-07-31T03:43:49;100317.72;;;14.68;52.37
64053;BME280;50299;49.524;8.536;2023-07-31T03:46:18;100331.19;;;14.82;50.72
64053;BME280;50299;49.524;8.536;2023-07-31T03:48:44;100325.34;;;14.71;52.30
64053;BME280;50299;49.524;8.536;2023-07-31T03:51:10;100324.72;;;14.62;53.54
64053;BME280;50299;49.524;8.536;2023-07-31T03:53:37;100326.00;;;14.65;52.13
64053;BME280;50299;49.524;8.536;2023-07-31T03:56:04;100319.78;;;14.71;53.77
64053;BME280;50299;49.524;8.536;2023-07-31T03:58:30;100321.84;;;14.74;53.10
64053;BME280;50299;49.524;8.536;2023-07-31T04:00:57;100327.50;;;14.62;53.50
64053;BME280;50299;49.524;8.536;2023-07-31T04:03:23;100320.25;;;14.58;53.42
64053;BME280;50299;49.524;8.536;2023-07-31T04:05:50;100323.66;;;14.51;52.83
64053;BME280;50299;49.524;8.536;2023-07-31T04:08:16;100322.13;;;14.53;53.59
64053;BME280;50299;49.524;8.536;2023-07-31T04:10:42;100323.38;;;14.56;52.86
64053;BME280;50299;49.524;8.536;2023-07-31T04:13:09;100329.31;;;14.39;52.92
64053;BME280;50299;49.524;8.536;2023-07-31T04:15:35;100330.31;;;14.18;54.09
64053;BME280;50299;49.524;8.536;2023-07-31T04:18:02;100335.72;;;14.27;52.90
64053;BME280;50299;49.524;8.536;2023-07-31T04:20:28;100334.25;;;14.45;53.75
64053;BME280;50299;49.524;8.536;2023-07-31T04:22:54;100332.88;;;14.55;52.40
64053;BME280;50299;49.524;8.536;2023-07-31T04:25:21;100325.53;;;14.47;53.50
64053;BME280;50299;49.524;8.536;2023-07-31T04:27:48;100325.63;;;14.50;54.09
64053;BME280;50299;49.524;8.536;2023-07-31T04:30:14;100325.44;;;14.43;54.37
64053;BME280;50299;49.524;8.536;2023-07-31T04:32:40;100316.28;;;14.59;53.09
64053;BME280;50299;49.524;8.536;2023-07-31T04:35:07;100313.41;;;14.71;54.18
64053;BME280;50299;49.524;8.536;2023-07-31T04:37:33;100317.09;;;14.59;52.87
64053;BME280;50299;49.524;8.536;2023-07-31T04:40:00;100322.38;;;14.80;53.52
64053;BME280;50299;49.524;8.536;2023-07-31T04:42:26;100321.34;;;14.53;54.46
64053;BME280;50299;49.524;8.536;2023-07-31T04:44:52;100321.50;;;14.60;54.58
64053;BME280;50299;49.524;8.536;2023-07-31T04:47:19;100315.03;;;14.72;54.71
64053;BME280;50299;49.524;8.536;2023-07-31T04:49:46;100310.25;;;14.72;52.56
64053;BME280;50299;49.524;8.536;2023-07-31T04:52:12;100316.56;;;14.85;54.07
64053;BME280;50299;49.524;8.536;2023-07-31T04:54:39;100312.03;;;14.80;53.03
64053;BME280;50299;49.524;8.536;2023-07-31T04:57:05;100306.66;;;14.88;53.27
64053;BME280;50299;49.524;8.536;2023-07-31T04:59:32;100312.22;;;14.88;53.32
64053;BME280;50299;49.524;8.536;2023-07-31T05:01:59;100314.81;;;14.96;52.65
64053;BME280;50299;49.524;8.536;2023-07-31T05:04:25;100308.44;;;14.96;52.43
64053;BME280;50299;49.524;8.536;2023-07-31T05:06:52;100311.00;;;15.04;52.00
64053;BME280;50299;49.524;8.536;2023-07-31T05:09:18;100306.19;;;15.01;52.49
64053;BME280;50299;49.524;8.536;2023-07-31T05:11:45;100311.03;;;14.89;51.61
64053;BME280;50299;49.524;8.536;2023-07-31T05:14:13;100319.81;;;15.07;52.52
64053;BME280;50299;49.524;8.536;2023-07-31T05:16:39;100313.81;;;15.04;52.70
64053;BME280;50299;49.524;8.536;2023-07-31T05:19:06;100308.16;;;15.01;52.87
64053;BME280;50299;49.524;8.536;2023-07-31T05:21:32;100304.34;;;15.09;52.56
64053;BME280;50299;49.524;8.536;2023-07-31T05:23:59;100308.59;;;15.03;51.25
64053;BME280;50299;49.524;8.536;2023-07-31T05:26:25;100313.00;;;15.04;53.00
64053;BME280;50299;49.524;8.536;2023-07-31T05:28:52;100307.50;;;15.08;50.87
64053;BME280;50299;49.524;8.536;2023-07-31T05:31:18;100310.22;;;15.04;50.79
64053;BME280;50299;49.524;8.536;2023-07-31T05:33:45;100305.31;;;14.97;51.97
64053;BME280;50299;49.524;8.536;2023-07-31T05:36:11;100306.81;;;14.95;51.02
64053;BME280;50299;49.524;8.536;2023-07-31T05:38:38;100309.53;;;14.91;53.17
64053;BME280;50299;49.524;8.536;2023-07-31T05:41:08;100303.38;;;15.17;52.50
64053;BME280;50299;49.524;8.536;2023-07-31T05:43:34;100305.03;;;15.02;51.93
64053;BME280;50299;49.524;8.536;2023-07-31T05:46:01;100306.25;;;15.05;52.53
64053;BME280;50299;49.524;8.536;2023-07-31T05:48:31;100308.47;;;15.31;52.53
64053;BME280;50299;49.524;8.536;2023-07-31T05:50:57;100298.06;;;15.12;50.81
64053;BME280;50299;49.524;8.536;2023-07-31T05:53:24;100307.22;;;15.28;52.87
64053;BME280;50299;49.524;8.536;2023-07-31T05:55:50;100307.38;;;15.36;51.65
64053;BME280;50299;49.524;8.536;2023-07-31T05:58:17;100300.41;;;15.45;50.40
64053;BME280;50299;49.524;8.536;2023-07-31T06:00:43;100299.16;;;15.62;51.09
64053;BME280;50299;49.524;8.536;2023-07-31T06:03:10;100305.03;;;15.76;49.62
64053;BME280;50299;49.524;8.536;2023-07-31T06:05:36;100303.91;;;15.62;50.31
64053;BME280;50299;49.524;8.536;2023-07-31T06:08:03;100297.91;;;15.60;51.29
64053;BME280;50299;49.524;8.536;2023-07-31T06:10:29;100296.97;;;15.52;50.26
64053;BME280;50299;49.524;8.536;2023-07-31T06:12:56;100295.06;;;15.56;51.36
64053;BME280;50299;49.524;8.536;2023-07-31T06:15:23;100309.97;;;15.87;52.12
64053;BME280;50299;49.524;8.536;2023-07-31T06:17:50;100302.44;;;16.30;52.96
64053;BME280;50299;49.524;8.536;2023-07-31T06:20:16;100301.13;;;16.46;50.66
64053;BME280;50299;49.524;8.536;2023-07-31T06:22:42;100288.75;;;16.67;51.15
64053;BME280;50299;49.524;8.536;2023-07-31T06:25:09;100289.06;;;16.88;48.79
64053;BME280;50299;49.524;8.536;2023-07-31T06:27:40;100299.84;;;16.90;50.72
64053;BME280;50299;49.524;8.536;2023-07-31T06:30:07;100289.13;;;16.92;52.10
64053;BME280;50299;49.524;8.536;2023-07-31T06:32:34;100278.34;;;17.20;49.80
64053;BME280;50299;49.524;8.536;2023-07-31T06:35:00;100280.94;;;17.36;47.63
64053;BME280;50299;49.524;8.536;2023-07-31T06:37:27;100282.63;;;17.41;49.12
64053;BME280;50299;49.524;8.536;2023-07-31T06:39:53;100288.75;;;17.23;47.15
64053;BME280;50299;49.524;8.536;2023-07-31T06:42:19;100280.25;;;17.43;48.20
64053;BME280;50299;49.524;8.536;2023-07-31T06:44:46;100284.53;;;17.67;49.24
64053;BME280;50299;49.524;8.536;2023-07-31T06:47:12;100278.16;;;17.36;47.30
64053;BME280;50299;49.524;8.536;2023-07-31T06:49:39;100282.25;;;17.42;48.85
64053;BME280;50299;49.524;8.536;2023-07-31T06:52:05;100288.63;;;17.43;47.47
64053;BME280;50299;49.524;8.536;2023-07-31T06:54:32;100291.97;;;16.95;47.58
64053;BME280;50299;49.524;8.536;2023-07-31T06:56:58;100289.88;;;16.89;49.91
64053;BME280;50299;49.524;8.536;2023-07-31T06:59:25;100292.19;;;16.83;48.61
64053;BME280;50299;49.524;8.536;2023-07-31T07:01:51;100289.75;;;16.82;49.73
64053;BME280;50299;49.524;8.536;2023-07-31T07:04:18;100287.13;;;17.22;50.86
64053;BME280;50299;49.524;8.536;2023-07-31T07:06:44;100287.06;;;17.15;48.02
64053;BME280;50299;49.524;8.536;2023-07-31T07:09:24;100282.34;;;17.49;50.17
64053;BME280;50299;49.524;8.536;2023-07-31T07:11:50;100277.50;;;17.80;48.02
64053;BME280;50299;49.524;8.536;2023-07-31T07:14:17;100286.34;;;17.86;46.66
64053;BME280;50299;49.524;8.536;2023-07-31T07:16:43;100280.84;;;17.96;48.63
64053;BME280;50299;49.524;8.536;2023-07-31T07:19:10;100283.03;;;18.14;45.72
64053;BME280;50299;49.524;8.536;2023-07-31T07:21:36;100286.72;;;18.21;44.54
64053;BME280;50299;49.524;8.536;2023-07-31T07:24:03;100290.19;;;18.52;45.69
64053;BME280;50299;49.524;8.536;2023-07-31T07:26:29;100282.16;;;18.47;45.63
64053;BME280;50299;49.524;8.536;2023-07-31T07:28:56;100281.47;;;18.61;44.63
64053;BME280;50299;49.524;8.536;2023-07-31T07:31:25;100279.38;;;18.47;44.75
64053;BME280;50299;49.524;8.536;2023-07-31T07:33:51;100273.63;;;17.92;46.40
64053;BME280;50299;49.524;8.536;2023-07-31T07:36:18;100281.34;;;17.68;45.21
64053;BME280;50299;49.524;8.536;2023-07-31T07:38:44;100278.53;;;18.02;46.30
64053;BME280;50299;49.524;8.536;2023-07-31T07:41:11;100282.75;;;18.26;45.56
64053;BME280;50299;49.524;8.536;2023-07-31T07:43:37;100267.34;;;18.02;46.25
64053;BME280;50299;49.524;8.536;2023-07-31T07:46:04;100281.66;;;17.97;45.07
64053;BME280;50299;49.524;8.536;2023-07-31T07:48:30;100277.97;;;18.23;44.87
64053;BME280;50299;49.524;8.536;2023-07-31T07:50:56;100276.63;;;18.58;46.57
64053;BME280;50299;49.524;8.536;2023-07-31T07:53:23;100279.41;;;19.09;45.67
64053;BME280;50299;49.524;8.536;2023-07-31T07:55:49;100272.03;;;19.56;43.31
64053;BME280;50299;49.524;8.536;2023-07-31T07:58:16;100272.50;;;19.80;43.85
64053;BME280;50299;49.524;8.536;2023-07-31T08:00:48;100268.94;;;19.93;44.60
64053;BME280;50299;49.524;8.536;2023-07-31T08:03:15;100256.81;;;19.61;44.30
64053;BME280;50299;49.524;8.536;2023-07-31T08:05:43;100261.00;;;20.20;44.59
64053;BME280;50299;49.524;8.536;2023-07-31T08:08:14;100254.97;;;20.47;42.71
64053;BME280;50299;49.524;8.536;2023-07-31T08:10:41;100254.13;;;20.64;42.95
64053;BME280;50299;49.524;8.536;2023-07-31T08:13:10;100247.34;;;20.65;42.12
64053;BME280;50299;49.524;8.536;2023-07-31T08:15:37;100238.88;;;20.73;41.24
64053;BME280;50299;49.524;8.536;2023-07-31T08:18:03;100240.91;;;20.83;46.23
64053;BME280;50299;49.524;8.536;2023-07-31T08:20:30;100240.91;;;20.90;41.34
64053;BME280;50299;49.524;8.536;2023-07-31T08:22:56;100240.06;;;20.97;40.41
64053;BME280;50299;49.524;8.536;2023-07-31T08:25:23;100234.84;;;21.02;42.60
64053;BME280;50299;49.524;8.536;2023-07-31T08:27:50;100227.59;;;21.05;42.09
64053;BME280;50299;49.524;8.536;2023-07-31T08:30:19;100228.84;;;19.86;40.54
64053;BME280;50299;49.524;8.536;2023-07-31T08:32:47;100218.00;;;19.63;42.85
64053;BME280;50299;49.524;8.536;2023-07-31T08:35:14;100222.69;;;19.37;42.46
64053;BME280;50299;49.524;8.536;2023-07-31T08:37:40;100209.13;;;19.54;44.26
64053;BME280;50299;49.524;8.536;2023-07-31T08:40:07;100211.22;;;19.85;41.96
64053;BME280;50299;49.524;8.536;2023-07-31T08:42:43;100202.00;;;20.06;41.42
64053;BME280;50299;49.524;8.536;2023-07-31T08:45:13;100211.66;;;20.30;41.90
64053;BME280;50299;49.524;8.536;2023-07-31T08:47:41;100197.56;;;20.77;42.75
64053;BME280;50299;49.524;8.536;2023-07-31T08:50:12;100200.38;;;20.66;40.19
64053;BME280;50299;49.524;8.536;2023-07-31T08:52:39;100198.38;;;20.59;42.68
64053;BME280;50299;49.524;8.536;2023-07-31T08:55:06;100199.97;;;20.71;40.29
64053;BME280;50299;49.524;8.536;2023-07-31T08:57:36;100191.63;;;20.21;40.88
64053;BME280;50299;49.524;8.536;2023-07-31T09:00:04;100181.97;;;20.40;41.27
64053;BME280;50299;49.524;8.536;2023-07-31T09:02:46;100194.19;;;19.21;41.45
64053;BME280;50299;49.524;8.536;2023-07-31T09:05:15;100178.25;;;18.52;44.20
64053;BME280;50299;49.524;8.536;2023-07-31T09:07:44;100184.34;;;18.68;44.29
64053;BME280;50299;49.524;8.536;2023-07-31T09:10:12;100182.16;;;19.17;43.61
64053;BME280;50299;49.524;8.536;2023-07-31T09:12:39;100195.81;;;19.29;42.34
64053;BME280;50299;49.524;8.536;2023-07-31T09:15:06;100189.47;;;19.39;42.87
64053;BME280;50299;49.524;8.536;2023-07-31T09:17:34;100189.91;;;19.48;44.08
64053;BME280;50299;49.524;8.536;2023-07-31T09:20:20;100197.25;;;20.21;41.16
64053;BME280;50299;49.524;8.536;2023-07-31T09:22:48;100183.56;;;19.98;42.13
64053;BME280;50299;49.524;8.536;2023-07-31T09:25:43;100180.19;;;19.17;42.01
64053;BME280;50299;49.524;8.536;2023-07-31T09:28:10;100195.84;;;19.26;42.73
64053;BME280;50299;49.524;8.536;2023-07-31T09:30:50;100186.72;;;19.54;41.59
64053;BME280;50299;49.524;8.536;2023-07-31T09:33:19;100178.34;;;19.82;43.59
64053;BME280;50299;49.524;8.536;2023-07-31T09:35:46;100175.13;;;20.55;42.91
64053;BME280;50299;49.524;8.536;2023-07-31T09:38:15;100172.19;;;21.02;40.49
64053;BME280;50299;49.524;8.536;2023-07-31T09:40:48;100165.38;;;21.06;42.14
64053;BME280;50299;49.524;8.536;2023-07-31T09:43:20;100165.31;;;21.13;39.26
64053;BME280;50299;49.524;8.536;2023-07-31T09:45:47;100155.44;;;20.69;39.31
64053;BME280;50299;49.524;8.536;2023-07-31T09:48:16;100164.34;;;20.11;40.13
64053;BME280;50299;49.524;8.536;2023-07-31T09:50:47;100161.50;;;19.50;42.45
64053;BME280;50299;49.524;8.536;2023-07-31T09:53:15;100147.13;;;19.84;43.58
64053;BME280;50299;49.524;8.536;2023-07-31T09:55:43;100144.31;;;20.19;42.72
64053;BME280;50299;49.524;8.536;2023-07-31T09:58:11;100143.88;;;19.78;43.33
64053;BME280;50299;49.524;8.536;2023-07-31T10:00:38;100151.09;;;19.61;41.83
64053;BME280;50299;49.524;8.536;2023-07-31T10:03:09;100138.66;;;19.44;43.71
64053;BME280;50299;49.524;8.536;2023-07-31T10:05:42;100145.31;;;19.04;43.24
64053;BME280;50299;49.524;8.536;2023-07-31T10:08:13;100135.66;;;18.91;43.25
64053;BME280;50299;49.524;8.536;2023-07-31T10:10:44;100140.13;;;19.03;44.17
64053;BME280;50299;49.524;8.536;2023-07-31T10:13:12;100118.94;;;19.09;44.24
64053;BME280;50299;49.524;8.536;2023-07-31T10:15:39;100126.53;;;19.08;44.55
64053;BME280;50299;49.524;8.536;2023-07-31T10:18:07;100123.72;;;19.05;43.80
64053;BME280;50299;49.524;8.536;2023-07-31T10:20:34;100134.63;;;19.38;43.79
64053;BME280;50299;49.524;8.536;2023-07-31T10:23:02;100119.00;;;19.30;45.27
64053;BME280;50299;49.524;8.536;2023-07-31T10:25:29;100118.63;;;19.50;43.28
64053;BME280;50299;49.524;8.536;2023-07-31T10:27:57;100111.44;;;19.73;44.65
64053;BME280;50299;49.524;8.536;2023-07-31T10:30:26;100105.44;;;19.79;41.44
64053;BME280;50299;49.524;8.536;2023-07-31T10:32:54;100112.25;;;19.70;41.93
64053;BME280;50299;49.524;8.536;2023-07-31T10:35:21;100124.66;;;19.77;41.95
64053;BME280;50299;49.524;8.536;2023-07-31T10:37:52;100110.53;;;19.16;43.54
64053;BME280;50299;49.524;8.536;2023-07-31T10:40:28;100118.13;;;19.08;42.97
64053;BME280;50299;49.524;8.536;2023-07-31T10:42:56;100105.44;;;19.68;43.51
64053;BME280;50299;49.524;8.536;2023-07-31T10:45:37;100096.63;;;19.84;41.87
64053;BME280;50299;49.524;8.536;2023-07-31T10:48:04;100104.13;;;20.58;41.09
64053;BME280;50299;49.524;8.536;2023-07-31T10:50:33;100086.44;;;20.76;39.77
64053;BME280;50299;49.524;8.536;2023-07-31T10:53:03;100105.00;;;20.41;41.18
64053;BME280;50299;49.524;8.536;2023-07-31T10:55:35;100115.34;;;20.65;39.40
64053;BME280;50299;49.524;8.536;2023-07-31T10:58:08;100105.44;;;20.29;40.68
64053;BME280;50299;49.524;8.536;2023-07-31T11:00:43;100100.59;;;20.36;39.50
64053;BME280;50299;49.524;8.536;2023-07-31T11:03:13;100106.19;;;20.40;40.10
64053;BME280;50299;49.524;8.536;2023-07-31T11:06:00;100105.81;;;20.27;39.56
64053;BME280;50299;49.524;8.536;2023-07-31T11:08:32;100102.59;;;20.07;40.35
64053;BME280;50299;49.524;8.536;2023-07-31T11:13:45;100081.81;;;19.80;40.59
64053;BME280;50299;49.524;8.536;2023-07-31T11:16:13;100099.44;;;19.55;40.44
64053;BME280;50299;49.524;8.536;2023-07-31T11:18:41;100094.63;;;19.59;42.20
64053;BME280;50299;49.524;8.536;2023-07-31T11:21:19;100088.22;;;19.73;41.51
64053;BME280;50299;49.524;8.536;2023-07-31T11:23:53;100081.41;;;20.13;40.84
64053;BME280;50299;49.524;8.536;2023-07-31T11:26:20;100080.16;;;20.32;41.74
64053;BME280;50299;49.524;8.536;2023-07-31T11:28:47;100075.28;;;20.54;41.03
64053;BME280;50299;49.524;8.536;2023-07-31T11:31:14;100086.88;;;20.60;40.58
64053;BME280;50299;49.524;8.536;2023-07-31T11:33:41;100084.84;;;20.75;42.68
64053;BME280;50299;49.524;8.536;2023-07-31T11:36:16;100082.50;;;20.48;41.48
64053;BME280;50299;49.524;8.536;2023-07-31T11:38:43;100092.19;;;20.18;42.14
64053;BME280;50299;49.524;8.536;2023-07-31T11:41:10;100078.59;;;19.92;42.59
64053;BME280;50299;49.524;8.536;2023-07-31T11:43:36;100072.19;;;19.77;41.96
64053;BME280;50299;49.524;8.536;2023-07-31T11:46:02;100071.78;;;19.64;44.58
64053;BME280;50299;49.524;8.536;2023-07-31T11:48:31;100061.78;;;19.63;42.30
64053;BME280;50299;49.524;8.536;2023-07-31T11:51:01;100062.59;;;19.67;43.78
64053;BME280;50299;49.524;8.536;2023-07-31T11:53:31;100063.34;;;20.04;42.66
64053;BME280;50299;49.524;8.536;2023-07-31T11:56:00;100058.53;;;20.11;42.91
64053;BME280;50299;49.524;8.536;2023-07-31T11:58:28;100061.34;;;19.83;44.39
64053;BME280;50299;49.524;8.536;2023-07-31T12:00:56;100051.75;;;19.34;42.00
64053;BME280;50299;49.524;8.536;2023-07-31T12:03:23;100041.31;;;19.27;43.57
64053;BME280;50299;49.524;8.536;2023-07-31T12:05:49;100038.53;;;19.38;43.05
64053;BME280;50299;49.524;8.536;2023-07-31T12:08:16;100051.72;;;19.19;43.81
64053;BME280;50299;49.524;8.536;2023-07-31T12:10:44;100051.69;;;19.05;44.23
64053;BME280;50299;49.524;8.536;2023-07-31T12:13:20;100048.13;;;19.26;43.29
64053;BME280;50299;49.524;8.536;2023-07-31T12:15:47;100040.53;;;19.34;42.66
64053;BME280;50299;49.524;8.536;2023-07-31T12:18:16;100041.38;;;19.56;42.44
64053;BME280;50299;49.524;8.536;2023-07-31T12:20:46;100035.31;;;19.36;40.84
64053;BME280;50299;49.524;8.536;2023-07-31T12:23:21;100032.50;;;19.25;41.94
64053;BME280;50299;49.524;8.536;2023-07-31T12:28:30;100030.53;;;19.65;41.57
64053;BME280;50299;49.524;8.536;2023-07-31T12:31:00;100040.88;;;19.07;41.32
64053;BME280;50299;49.524;8.536;2023-07-31T12:33:34;100033.22;;;18.79;42.39
64053;BME280;50299;49.524;8.536;2023-07-31T12:36:03;100034.09;;;19.01;41.59
64053;BME280;50299;49.524;8.536;2023-07-31T12:38:30;100035.63;;;18.81;41.71
64053;BME280;50299;49.524;8.536;2023-07-31T12:40:56;100033.28;;;18.97;42.49
64053;BME280;50299;49.524;8.536;2023-07-31T12:43:23;100017.56;;;18.74;42.00
64053;BME280;50299;49.524;8.536;2023-07-31T12:45:49;100031.91;;;18.52;42.90
64053;BME280;50299;49.524;8.536;2023-07-31T12:48:16;100021.53;;;18.66;41.32
64053;BME280;50299;49.524;8.536;2023-07-31T12:50:42;100020.06;;;19.08;43.32
64053;BME280;50299;49.524;8.536;2023-07-31T12:53:09;100000.47;;;19.37;42.67
64053;BME280;50299;49.524;8.536;2023-07-31T12:55:35;100006.09;;;19.72;41.54
64053;BME280;50299;49.524;8.536;2023-07-31T12:58:03;99994.03;;;19.90;41.12
64053;BME280;50299;49.524;8.536;2023-07-31T13:00:30;100004.09;;;19.87;41.32
64053;BME280;50299;49.524;8.536;2023-07-31T13:03:00;99985.56;;;20.18;40.11
64053;BME280;50299;49.524;8.536;2023-07-31T13:05:27;99993.41;;;20.63;44.03